Time;durP1;ratioP1;P1;durP2;ratioP2;P2;SDS_P1;SDS_P2;PMS_P1;PMS_P2;Temp;Humidity;BMP_temperature;BMP_pressure;BME280_temperature;BME280_humidity;BME280_pressure;Samples;Min_cycle;Max_cycle;Signal;HPM_P1;HPM_P2
2022/09/23 00:01:32;;;;;;;30.25;11.07;;;;;;;;;;5093277;28;20024;-67
2022/09/23 00:03:59;;;;;;;7.85;4.57;;;;;;;;;;5094001;28;20038;-67
2022/09/23 00:06:28;;;;;;;5.93;3.45;;;;;;;;;;5093640;28;20031;-66
2022/09/23 00:08:55;;;;;;;6.07;3.83;;;;;;;;;;5093168;28;20474;-67
2022/09/23 00:11:22;;;;;;;12.32;5.10;;;;;;;;;;5093317;28;20074;-67
2022/09/23 00:13:49;;;;;;;6.20;4.07;;;;;;;;;;5093408;28;20022;-67
2022/09/23 00:16:17;;;;;;;6.72;4.05;;;;;;;;;;5093014;28;20059;-67
2022/09/23 00:18:44;;;;;;;7.13;3.88;;;;;;;;;;5093616;28;20017;-67
2022/09/23 00:21:11;;;;;;;11.60;4.15;;;;;;;;;;5093380;28;20028;-67
2022/09/23 00:23:37;;;;;;;9.40;3.53;;;;;;;;;;5092971;28;20020;-67
2022/09/23 00:26:04;;;;;;;6.10;3.85;;;;;;;;;;5093408;28;20024;-67
2022/09/23 00:28:31;;;;;;;8.40;4.43;;;;;;;;;;5093257;28;20033;-67
2022/09/23 00:31:02;;;;;;;7.30;3.63;;;;;;;;;;5092724;28;20030;-66
2022/09/23 00:33:28;;;;;;;6.22;3.90;;;;;;;;;;5093560;28;20024;-67
2022/09/23 00:35:58;;;;;;;6.50;4.05;;;;;;;;;;5093241;28;20070;-67
2022/09/23 00:38:24;;;;;;;7.60;4.05;;;;;;;;;;5095079;28;20024;-67
2022/09/23 00:40:50;;;;;;;5.82;3.50;;;;;;;;;;5097119;28;20027;-67
2022/09/23 00:43:16;;;;;;;6.07;3.53;;;;;;;;;;5097225;28;20016;-67
2022/09/23 00:45:46;;;;;;;5.88;3.20;;;;;;;;;;5096521;28;20587;-67
2022/09/23 00:48:15;;;;;;;5.70;3.28;;;;;;;;;;5096843;28;20099;-67
2022/09/23 00:50:43;;;;;;;6.13;3.45;;;;;;;;;;5096128;28;20067;-67
2022/09/23 00:53:12;;;;;;;7.30;3.58;;;;;;;;;;5096894;28;20028;-67
2022/09/23 00:55:39;;;;;;;6.13;3.47;;;;;;;;;;5096960;28;20055;-67
2022/09/23 00:58:07;;;;;;;7.43;4.25;;;;;;;;;;5096357;28;20028;-67
2022/09/23 01:00:34;;;;;;;5.20;3.15;;;;;;;;;;5095545;28;20391;-67
2022/09/23 01:03:00;;;;;;;7.63;4.35;;;;;;;;;;5096539;28;20048;-67
2022/09/23 01:05:27;;;;;;;6.88;3.60;;;;;;;;;;5096142;28;20089;-67
2022/09/23 01:07:56;;;;;;;6.22;3.70;;;;;;;;;;5096446;28;20028;-67
2022/09/23 01:10:22;;;;;;;6.20;3.75;;;;;;;;;;5096573;28;20024;-67
2022/09/23 01:13:01;;;;;;;6.07;3.95;;;;;;;;;;5096004;28;20035;-68
2022/09/23 01:15:48;;;;;;;6.38;3.63;;;;;;;;;;5096607;28;20016;-67
2022/09/23 01:18:17;;;;;;;6.30;3.90;;;;;;;;;;5096269;28;20069;-66
2022/09/23 01:21:02;;;;;;;7.32;4.18;;;;;;;;;;5095832;28;20419;-67
2022/09/23 01:23:43;;;;;;;7.22;4.00;;;;;;;;;;5096306;28;20027;-67
2022/09/23 01:26:30;;;;;;;7.57;4.18;;;;;;;;;;5095767;28;20112;-67
2022/09/23 01:29:15;;;;;;;8.07;4.35;;;;;;;;;;5096241;28;20426;-67
2022/09/23 01:32:03;;;;;;;7.55;4.53;;;;;;;;;;5095868;28;20550;-67
2022/09/23 01:34:35;;;;;;;7.97;4.35;;;;;;;;;;5095678;28;20038;-67
2022/09/23 01:37:08;;;;;;;8.02;4.82;;;;;;;;;;5095908;28;20032;-67
2022/09/23 01:39:37;;;;;;;9.00;4.28;;;;;;;;;;5096012;28;20077;-67
2022/09/23 01:42:10;;;;;;;7.15;4.47;;;;;;;;;;5095709;28;20021;-67
2022/09/23 01:44:59;;;;;;;6.90;4.70;;;;;;;;;;5095806;28;20484;-67
2022/09/23 01:47:34;;;;;;;6.95;4.65;;;;;;;;;;5087374;28;20043;-67
2022/09/23 01:50:54;;;;;;;6.35;4.20;;;;;;;;;;5095550;28;20111;-67
2022/09/23 01:52:52;;;;;;;6.70;3.92;;;;;;;;;;5095488;28;20047;-67
2022/09/23 01:55:30;;;;;;;6.50;4.28;;;;;;;;;;5095406;28;20028;-67
2022/09/23 01:57:56;;;;;;;6.68;4.03;;;;;;;;;;5095881;28;20537;-66
2022/09/23 02:00:23;;;;;;;7.07;4.07;;;;;;;;;;5095577;28;20031;-67
2022/09/23 02:02:52;;;;;;;6.25;3.75;;;;;;;;;;5095108;28;20506;-67
2022/09/23 02:05:27;;;;;;;8.10;4.15;;;;;;;;;;5095449;28;20094;-66
2022/09/23 02:08:13;;;;;;;6.25;4.53;;;;;;;;;;5095145;28;20046;-66
2022/09/23 02:10:50;;;;;;;6.53;4.13;;;;;;;;;;5095005;28;20032;-68
2022/09/23 02:13:17;;;;;;;6.13;3.90;;;;;;;;;;5095512;28;20025;-67
2022/09/23 02:15:54;;;;;;;6.97;3.90;;;;;;;;;;5094914;28;20020;-67
2022/09/23 02:18:32;;;;;;;9.93;4.93;;;;;;;;;;5095137;28;20032;-67
2022/09/23 02:21:02;;;;;;;5.68;3.88;;;;;;;;;;5094645;28;20032;-67
2022/09/23 02:23:47;;;;;;;5.95;3.78;;;;;;;;;;5094917;28;20150;-67
2022/09/23 02:26:24;;;;;;;6.60;3.78;;;;;;;;;;5095081;28;20059;-67
2022/09/23 02:28:53;;;;;;;8.35;4.18;;;;;;;;;;5094881;28;20424;-67
2022/09/23 02:31:19;;;;;;;7.03;3.55;;;;;;;;;;5094967;28;20028;-67
2022/09/23 02:33:57;;;;;;;6.43;4.05;;;;;;;;;;5094840;28;20024;-67
2022/09/23 02:36:24;;;;;;;7.90;4.38;;;;;;;;;;5094333;28;20472;-67
2022/09/23 02:38:59;;;;;;;5.45;3.53;;;;;;;;;;5094775;28;20036;-67
2022/09/23 02:41:40;;;;;;;6.65;3.78;;;;;;;;;;5094675;28;20028;-67
2022/09/23 02:44:11;;;;;;;7.25;4.15;;;;;;;;;;5094524;28;20471;-67
2022/09/23 02:46:38;;;;;;;6.25;4.05;;;;;;;;;;5094537;28;20081;-67
2022/09/23 02:49:10;;;;;;;6.32;3.80;;;;;;;;;;5095079;28;20035;-67
2022/09/23 02:51:37;;;;;;;5.65;3.80;;;;;;;;;;5093939;28;20048;-67
2022/09/23 02:54:04;;;;;;;6.93;4.00;;;;;;;;;;5094463;28;20070;-67
2022/09/23 02:56:30;;;;;;;6.93;4.10;;;;;;;;;;5093084;28;20028;-67
2022/09/23 02:58:56;;;;;;;5.72;3.67;;;;;;;;;;5094208;28;20065;-67
2022/09/23 03:01:23;;;;;;;6.97;3.83;;;;;;;;;;5093836;28;20430;-67
2022/09/23 03:03:58;;;;;;;6.05;3.40;;;;;;;;;;5094344;28;20019;-67
2022/09/23 03:06:39;;;;;;;9.10;4.38;;;;;;;;;;5093769;28;20551;-67
2022/09/23 03:09:10;;;;;;;6.65;4.05;;;;;;;;;;5094317;28;20024;-67
2022/09/23 03:11:38;;;;;;;6.90;4.25;;;;;;;;;;5093626;28;20040;-67
2022/09/23 03:14:05;;;;;;;7.88;4.25;;;;;;;;;;5094226;28;20021;-67
2022/09/23 03:16:41;;;;;;;7.28;4.80;;;;;;;;;;5094057;28;20024;-67
2022/09/23 03:19:07;;;;;;;18.15;7.15;;;;;;;;;;5092432;28;20361;-67
2022/09/23 03:21:37;;;;;;;19.65;7.70;;;;;;;;;;5093967;28;20024;-67
2022/09/23 03:24:05;;;;;;;14.60;6.32;;;;;;;;;;5093958;28;20020;-67
2022/09/23 03:26:33;;;;;;;12.18;5.93;;;;;;;;;;5093485;28;20085;-67
2022/09/23 03:29:02;;;;;;;11.50;6.10;;;;;;;;;;5093852;28;20016;-67
2022/09/23 03:31:28;;;;;;;8.68;5.55;;;;;;;;;;5093994;28;20043;-67
2022/09/23 03:33:57;;;;;;;9.10;5.53;;;;;;;;;;5093436;28;20028;-67
2022/09/23 03:39:14;;;;;;;8.15;4.55;;;;;;;;;;5093411;28;20059;-67
2022/09/23 03:41:51;;;;;;;7.85;4.57;;;;;;;;;;5093751;28;20031;-67
2022/09/23 03:44:18;;;;;;;7.78;4.45;;;;;;;;;;5093973;28;20028;-67
2022/09/23 03:46:48;;;;;;;7.07;4.35;;;;;;;;;;5093181;28;20157;-67
2022/09/23 03:49:26;;;;;;;7.47;4.60;;;;;;;;;;5093636;28;20463;-67
2022/09/23 03:51:52;;;;;;;9.23;4.72;;;;;;;;;;5093331;28;20501;-67
2022/09/23 03:54:19;;;;;;;6.90;4.07;;;;;;;;;;5093138;28;20020;-66
2022/09/23 03:56:46;;;;;;;8.65;4.90;;;;;;;;;;5093583;28;20471;-66
2022/09/23 03:59:16;;;;;;;8.10;4.70;;;;;;;;;;5093605;28;20361;-66
2022/09/23 04:01:42;;;;;;;7.97;4.68;;;;;;;;;;5093243;28;20024;-67
2022/09/23 04:04:09;;;;;;;7.22;5.03;;;;;;;;;;5093524;28;20032;-67
2022/09/23 04:06:35;;;;;;;7.55;4.90;;;;;;;;;;5093499;28;20028;-67
2022/09/23 04:09:01;;;;;;;7.80;4.40;;;;;;;;;;5093063;28;20052;-67
2022/09/23 04:11:28;;;;;;;7.65;4.57;;;;;;;;;;5093371;28;20028;-67
2022/09/23 04:13:57;;;;;;;7.25;4.57;;;;;;;;;;5096740;28;20058;-67
2022/09/23 04:16:23;;;;;;;7.85;4.40;;;;;;;;;;5097070;28;20027;-67
2022/09/23 04:18:49;;;;;;;7.25;4.30;;;;;;;;;;5097496;28;20031;-67
2022/09/23 04:21:16;;;;;;;6.80;4.15;;;;;;;;;;5097466;28;20555;-67
2022/09/23 04:23:42;;;;;;;9.38;4.00;;;;;;;;;;5095654;28;20066;-67
2022/09/23 04:26:08;;;;;;;6.45;4.18;;;;;;;;;;5097334;28;20095;-67
2022/09/23 04:28:34;;;;;;;7.60;4.60;;;;;;;;;;5096764;28;20400;-67
2022/09/23 04:31:08;;;;;;;9.30;4.47;;;;;;;;;;5097409;28;20111;-67
2022/09/23 04:33:35;;;;;;;8.23;4.13;;;;;;;;;;5096926;28;20472;-67
2022/09/23 04:36:01;;;;;;;8.63;4.32;;;;;;;;;;5096894;28;20054;-67
2022/09/23 04:38:27;;;;;;;8.52;4.65;;;;;;;;;;5096856;28;20057;-67
2022/09/23 04:40:53;;;;;;;8.38;5.38;;;;;;;;;;5097301;28;20020;-67
2022/09/23 04:43:22;;;;;;;8.20;4.97;;;;;;;;;;5097233;28;20039;-67
2022/09/23 04:45:56;;;;;;;8.30;5.05;;;;;;;;;;5096822;28;20035;-67
2022/09/23 04:48:23;;;;;;;9.02;5.70;;;;;;;;;;5097013;28;20387;-67
2022/09/23 04:50:49;;;;;;;8.18;5.10;;;;;;;;;;5096768;28;20036;-67
2022/09/23 04:53:15;;;;;;;7.20;4.75;;;;;;;;;;5096649;28;20020;-67
2022/09/23 04:55:42;;;;;;;7.07;4.38;;;;;;;;;;5096595;28;20028;-67
2022/09/23 04:58:09;;;;;;;8.88;5.20;;;;;;;;;;5096393;28;20503;-67
2022/09/23 05:00:35;;;;;;;7.30;4.60;;;;;;;;;;5096254;28;20016;-67
2022/09/23 05:03:01;;;;;;;7.10;4.32;;;;;;;;;;5096462;28;20030;-67
2022/09/23 05:05:28;;;;;;;8.32;4.68;;;;;;;;;;5096172;28;20046;-69
2022/09/23 05:07:55;;;;;;;10.90;5.03;;;;;;;;;;5096394;28;20026;-67
2022/09/23 05:10:21;;;;;;;6.82;3.92;;;;;;;;;;5096167;28;20031;-66
2022/09/23 05:12:48;;;;;;;6.88;3.90;;;;;;;;;;5096491;28;20076;-65
2022/09/23 05:15:15;;;;;;;6.20;3.88;;;;;;;;;;5096528;28;20516;-65
2022/09/23 05:17:43;;;;;;;6.65;4.15;;;;;;;;;;5096255;28;20369;-66
2022/09/23 05:20:10;;;;;;;6.30;4.07;;;;;;;;;;5096230;28;20024;-65
2022/09/23 05:22:36;;;;;;;9.77;4.60;;;;;;;;;;5095718;28;20013;-64
2022/09/23 05:25:02;;;;;;;7.22;4.10;;;;;;;;;;5095434;28;20027;-64
2022/09/23 05:27:29;;;;;;;6.45;4.05;;;;;;;;;;5095204;28;20024;-63
2022/09/23 05:29:55;;;;;;;7.15;4.18;;;;;;;;;;5095124;28;20028;-64
2022/09/23 05:32:21;;;;;;;7.18;4.13;;;;;;;;;;5095806;28;20111;-63
2022/09/23 05:34:47;;;;;;;8.30;4.30;;;;;;;;;;5095895;28;20024;-65
2022/09/23 05:37:13;;;;;;;7.47;4.82;;;;;;;;;;5095994;28;20062;-64
2022/09/23 05:39:39;;;;;;;6.32;3.90;;;;;;;;;;5095904;28;20103;-65
2022/09/23 05:42:06;;;;;;;10.85;4.95;;;;;;;;;;5095692;28;20437;-65
2022/09/23 05:44:32;;;;;;;9.00;4.90;;;;;;;;;;5095203;28;20174;-64
2022/09/23 05:50:02;;;;;;;8.15;4.43;;;;;;;;;;5095184;28;20043;-67
2022/09/23 05:52:28;;;;;;;6.75;4.22;;;;;;;;;;5094903;28;20552;-64
2022/09/23 05:54:54;;;;;;;7.57;4.50;;;;;;;;;;5095159;28;20401;-64
2022/09/23 05:57:20;;;;;;;7.30;4.03;;;;;;;;;;5093359;28;20028;-64
2022/09/23 05:59:46;;;;;;;6.15;3.75;;;;;;;;;;5094105;28;20016;-65
2022/09/23 06:02:13;;;;;;;8.98;4.57;;;;;;;;;;5095200;28;20078;-63
2022/09/23 06:04:40;;;;;;;6.80;4.30;;;;;;;;;;5095172;28;20020;-65
2022/09/23 06:07:06;;;;;;;6.68;4.28;;;;;;;;;;5095462;28;20414;-63
2022/09/23 06:09:32;;;;;;;5.80;3.30;;;;;;;;;;5095213;28;20050;-62
2022/09/23 06:11:58;;;;;;;6.10;3.58;;;;;;;;;;5095141;28;20040;-64
2022/09/23 06:14:24;;;;;;;9.23;4.00;;;;;;;;;;5093173;28;20024;-62
2022/09/23 06:16:50;;;;;;;7.40;4.38;;;;;;;;;;5093383;28;20032;-63
2022/09/23 06:22:45;;;;;;;6.20;3.80;;;;;;;;;;5094724;28;20252;-64
2022/09/23 06:25:11;;;;;;;5.13;3.10;;;;;;;;;;5094643;28;20028;-64
2022/09/23 06:27:38;;;;;;;5.88;3.58;;;;;;;;;;5093229;28;20556;-64
2022/09/23 06:30:05;;;;;;;7.13;3.70;;;;;;;;;;5094538;28;20039;-64
2022/09/23 06:32:31;;;;;;;7.57;4.43;;;;;;;;;;5094344;28;20120;-64
2022/09/23 06:34:57;;;;;;;6.72;3.95;;;;;;;;;;5093483;28;20548;-62
2022/09/23 06:37:24;;;;;;;9.15;3.92;;;;;;;;;;5094153;28;20060;-61
2022/09/23 06:39:51;;;;;;;5.80;3.60;;;;;;;;;;5094347;28;20028;-62
2022/09/23 06:45:21;;;;;;;798.40;499.23;;;;;;;;;;5094486;28;20043;-62
2022/09/23 06:47:53;;;;;;;811.10;528.92;;;;;;;;;;5093031;28;20494;-62
2022/09/23 06:50:20;;;;;;;777.60;495.67;;;;;;;;;;5094147;28;20491;-62
2022/09/23 06:52:50;;;;;;;726.15;422.15;;;;;;;;;;5094252;28;20043;-63
2022/09/23 06:55:16;;;;;;;697.13;376.27;;;;;;;;;;5094324;28;20028;-62
2022/09/23 06:57:42;;;;;;;703.13;396.98;;;;;;;;;;5092571;28;20395;-63
2022/09/23 07:00:09;;;;;;;720.42;406.33;;;;;;;;;;5094022;28;20069;-63
2022/09/23 07:02:35;;;;;;;693.38;389.27;;;;;;;;;;5094096;28;20024;-63
2022/09/23 07:05:01;;;;;;;658.22;337.85;;;;;;;;;;5094097;28;20054;-62
2022/09/23 07:07:30;;;;;;;707.90;366.02;;;;;;;;;;5093770;28;20463;-62
2022/09/23 07:09:57;;;;;;;721.38;383.38;;;;;;;;;;5093472;28;20059;-61
2022/09/23 07:12:23;;;;;;;711.58;415.67;;;;;;;;;;5091939;28;20028;-62
2022/09/23 07:14:49;;;;;;;647.65;335.95;;;;;;;;;;5093622;28;20027;-61
2022/09/23 07:17:15;;;;;;;638.10;333.58;;;;;;;;;;5093657;28;20031;-62
2022/09/23 07:20:24;;;;;;;723.55;335.13;;;;;;;;;;5108619;27;20384;-63
2022/09/23 07:23:29;;;;;;;750.55;337.58;;;;;;;;;;5119478;27;20865;-62
2022/09/23 07:25:58;;;;;;;701.33;339.83;;;;;;;;;;5125072;28;20102;-62
2022/09/23 07:28:26;;;;;;;639.92;338.42;;;;;;;;;;5115871;28;20028;-63
2022/09/23 07:31:20;;;;;;;687.42;349.23;;;;;;;;;;5096194;27;20905;-62
2022/09/23 07:33:47;;;;;;;675.67;355.05;;;;;;;;;;5084937;28;20085;-62
2022/09/23 07:36:16;;;;;;;647.33;336.48;;;;;;;;;;5085876;28;20028;-61
2022/09/23 07:40:03;;;;;;;746.80;330.05;;;;;;;;;;5067210;27;20829;-64
2022/09/23 07:42:29;;;;;;;761.67;318.23;;;;;;;;;;5068359;28;20055;-65
2022/09/23 07:46:39;;;;;;;869.70;335.52;;;;;;;;;;5109361;27;20401;-63
2022/09/23 07:51:19;;;;;;;850.63;342.27;;;;;;;;;;5109985;27;20765;-64
2022/09/23 07:53:48;;;;;;;834.15;360.85;;;;;;;;;;5107018;28;20024;-62
2022/09/23 07:56:16;;;;;;;804.35;360.77;;;;;;;;;;5108969;28;20020;-63
2022/09/23 07:58:42;;;;;;;799.00;366.80;;;;;;;;;;5106720;28;20359;-63
2022/09/23 08:01:09;;;;;;;825.17;351.52;;;;;;;;;;5107210;28;20024;-62
2022/09/23 08:04:05;;;;;;;798.15;363.70;;;;;;;;;;5102420;27;20414;-64
2022/09/23 08:06:32;;;;;;;800.20;361.17;;;;;;;;;;5104877;28;20115;-64
2022/09/23 08:08:59;;;;;;;774.45;357.80;;;;;;;;;;5085836;28;20024;-63
2022/09/23 08:11:26;;;;;;;791.95;362.30;;;;;;;;;;5068185;28;20021;-63
2022/09/23 08:13:52;;;;;;;766.33;351.67;;;;;;;;;;5067793;28;20029;-63
2022/09/23 08:16:19;;;;;;;749.53;348.08;;;;;;;;;;5068198;28;20031;-62
2022/09/23 08:20:46;;;;;;;710.97;354.50;;;;;;;;;;5068432;28;20922;-65
2022/09/23 08:24:42;;;;;;;858.47;361.98;;;;;;;;;;5108765;27;20642;-63
2022/09/23 08:27:09;;;;;;;820.80;353.98;;;;;;;;;;5108436;28;20032;-62
2022/09/23 08:29:35;;;;;;;795.28;350.30;;;;;;;;;;5107438;28;20104;-62
2022/09/23 08:35:25;;;;;;;781.10;349.50;;;;;;;;;;5029381;27;20410;-63
2022/09/23 08:37:51;;;;;;;789.63;354.05;;;;;;;;;;5017430;28;20026;-65
2022/09/23 08:41:49;;;;;;;798.95;361.27;;;;;;;;;;5093996;27;20409;-64
2022/09/23 08:44:21;;;;;;;803.58;352.17;;;;;;;;;;5066961;28;20062;-64
2022/09/23 08:46:53;;;;;;;815.73;359.77;;;;;;;;;;5065662;28;20086;-64
2022/09/23 08:53:58;;;;;;;831.53;356.15;;;;;;;;;;5098248;27;20457;-65
2022/09/23 08:56:25;;;;;;;822.40;356.90;;;;;;;;;;5106549;28;20032;-65
2022/09/23 08:59:12;;;;;;;814.55;359.17;;;;;;;;;;5107463;28;20046;-66
2022/09/23 09:04:00;;;;;;;791.05;351.77;;;;;;;;;;5059999;28;20405;-66
2022/09/23 09:08:23;;;;;;;719.65;335.38;;;;;;;;;;5063017;28;20474;-63
2022/09/23 09:10:52;;;;;;;667.92;336.45;;;;;;;;;;5044895;28;20021;-64
2022/09/23 09:14:15;;;;;;;619.72;325.48;;;;;;;;;;5065878;28;20399;-64
2022/09/23 09:16:47;;;;;;;589.33;306.80;;;;;;;;;;5061371;28;20052;-66
2022/09/23 09:24:25;;;;;;;793.35;352.13;;;;;;;;;;5109965;27;20906;-64
2022/09/23 09:26:52;;;;;;;756.53;344.17;;;;;;;;;;5110101;28;20031;-66
2022/09/23 09:29:23;;;;;;;641.65;336.92;;;;;;;;;;5108703;28;20040;-62
2022/09/23 09:32:45;;;;;;;752.78;353.65;;;;;;;;;;5048184;28;20613;-65
2022/09/23 09:35:33;;;;;;;781.38;359.98;;;;;;;;;;5048393;28;20551;-64
2022/09/23 09:38:15;;;;;;;751.60;329.88;;;;;;;;;;5108334;27;20116;-64
2022/09/23 09:41:04;;;;;;;;;;;;;;;;;;;;;
2022/09/23 09:43:24;;;;;;;626.55;367.15;;;;;;;;;;4479072;27;17943629;-62
2022/09/23 09:48:38;;;;;;;676.90;332.08;;;;;;;;;;5110130;27;20389;-64
2022/09/23 09:51:23;;;;;;;667.90;332.83;;;;;;;;;;5108228;28;20035;-64
2022/09/23 09:56:09;;;;;;;633.90;342.88;;;;;;;;;;5108691;27;20718;-65
2022/09/23 09:58:50;;;;;;;730.33;411.17;;;;;;;;;;5110034;27;20460;-65
2022/09/23 10:02:44;;;;;;;765.25;491.23;;;;;;;;;;5130633;27;20471;-65
2022/09/23 10:07:13;;;;;;;980.92;619.28;;;;;;;;;;5068886;28;20873;-63
2022/09/23 10:13:15;;;;;;;1004.13;663.47;;;;;;;;;;5064916;28;20461;-68
2022/09/23 10:15:42;;;;;;;852.65;577.15;;;;;;;;;;5066330;28;20074;-65
2022/09/23 10:20:45;;;;;;;879.33;553.90;;;;;;;;;;5107029;27;20762;-63
2022/09/23 10:23:15;;;;;;;849.75;563.03;;;;;;;;;;5087366;28;20024;-63
2022/09/23 10:25:42;;;;;;;846.50;585.15;;;;;;;;;;5087766;28;20033;-63
2022/09/23 10:29:04;;;;;;;856.45;588.38;;;;;;;;;;5131800;27;20403;-63
2022/09/23 10:31:35;;;;;;;847.10;569.40;;;;;;;;;;5130665;27;20706;-64
2022/09/23 10:37:36;;;;;;;816.40;570.70;;;;;;;;;;5110121;27;20458;-63
2022/09/23 10:46:40;;;;;;;755.28;433.25;;;;;;;;;;5066959;28;20472;-65
2022/09/23 10:49:16;;;;;;;713.78;400.23;;;;;;;;;;5066056;28;20078;-65
2022/09/23 10:51:45;;;;;;;719.97;405.27;;;;;;;;;;5066909;28;20123;-63
2022/09/23 10:54:11;;;;;;;701.33;386.08;;;;;;;;;;5066861;28;20032;-63
2022/09/23 10:57:42;;;;;;;686.95;390.63;;;;;;;;;;5107390;27;21006;-63
2022/09/23 11:00:09;;;;;;;701.17;387.27;;;;;;;;;;5110553;28;20039;-66
2022/09/23 11:02:48;;;;;;;707.08;406.77;;;;;;;;;;5110394;28;20038;-64
2022/09/23 11:05:14;;;;;;;679.15;376.95;;;;;;;;;;5108010;28;20045;-64
2022/09/23 11:08:01;;;;;;;715.60;407.10;;;;;;;;;;5100411;28;20036;-63
2022/09/23 11:11:00;;;;;;;712.42;399.52;;;;;;;;;;5110769;27;20385;-63
2022/09/23 11:13:35;;;;;;;707.03;397.40;;;;;;;;;;5101655;28;20073;-63
2022/09/23 11:16:04;;;;;;;700.33;396.38;;;;;;;;;;5108135;28;20028;-64
2022/09/23 11:19:40;;;;;;;685.42;389.08;;;;;;;;;;5109910;27;20899;-63
2022/09/23 11:22:51;;;;;;;689.65;389.92;;;;;;;;;;5129073;27;20474;-67
2022/09/23 11:25:18;;;;;;;691.25;403.08;;;;;;;;;;5096498;28;20027;-65
2022/09/23 11:27:47;;;;;;;680.25;386.08;;;;;;;;;;5109674;28;20023;-65
2022/09/23 11:30:16;;;;;;;664.53;397.35;;;;;;;;;;5108368;28;20067;-64
2022/09/23 11:33:57;;;;;;;778.58;468.85;;;;;;;;;;5066404;28;20396;-66
2022/09/23 11:36:26;;;;;;;801.08;515.25;;;;;;;;;;5058671;28;20032;-64
2022/09/23 11:41:01;;;;;;;797.58;494.30;;;;;;;;;;5106664;27;20418;-66
2022/09/23 11:43:34;;;;;;;805.78;577.22;;;;;;;;;;5105801;28;20031;-65
2022/09/23 11:46:46;;;;;;;821.58;572.70;;;;;;;;;;5107076;27;20380;-65
2022/09/23 11:49:20;;;;;;;784.97;519.95;;;;;;;;;;5107865;28;20510;-65
2022/09/23 11:52:06;;;;;;;690.83;423.58;;;;;;;;;;5106751;28;20511;-64
2022/09/23 11:54:45;;;;;;;706.60;425.10;;;;;;;;;;5107097;28;20107;-65
2022/09/23 11:58:18;;;;;;;712.72;437.20;;;;;;;;;;5088040;27;20382;-65
2022/09/23 12:00:51;;;;;;;699.40;430.13;;;;;;;;;;5089136;28;20514;-65
2022/09/23 12:03:31;;;;;;;718.35;436.77;;;;;;;;;;5071441;28;20159;-64
2022/09/23 12:05:59;;;;;;;719.40;444.92;;;;;;;;;;5088547;28;20028;-65
2022/09/23 12:10:17;;;;;;;743.60;467.75;;;;;;;;;;5192259;27;20947;-64
2022/09/23 12:14:13;;;;;;;734.97;463.13;;;;;;;;;;5110691;27;20389;-65
2022/09/23 12:17:46;;;;;;;738.72;470.38;;;;;;;;;;5111257;27;20385;-65
2022/09/23 12:20:28;;;;;;;745.00;483.08;;;;;;;;;;5110667;28;20031;-65
2022/09/23 12:23:01;;;;;;;760.70;496.83;;;;;;;;;;5109550;28;20024;-64
2022/09/23 12:25:33;;;;;;;745.25;487.05;;;;;;;;;;5109148;28;20307;-64
2022/09/23 12:28:02;;;;;;;739.72;475.15;;;;;;;;;;5108661;28;20105;-65
2022/09/23 12:30:30;;;;;;;738.00;476.63;;;;;;;;;;5107355;28;20027;-65
2022/09/23 12:33:07;;;;;;;742.28;486.45;;;;;;;;;;5110396;28;20024;-64
2022/09/23 12:35:40;;;;;;;733.80;468.08;;;;;;;;;;5110215;28;20020;-65
2022/09/23 12:38:14;;;;;;;741.92;486.40;;;;;;;;;;5110529;28;20031;-66
2022/09/23 12:41:21;;;;;;;754.03;491.17;;;;;;;;;;5109445;27;20449;-66
2022/09/23 12:43:54;;;;;;;739.67;486.98;;;;;;;;;;5108674;28;20023;-66
2022/09/23 12:46:27;;;;;;;735.70;478.42;;;;;;;;;;5109982;28;20023;-66
2022/09/23 12:48:56;;;;;;;739.00;485.00;;;;;;;;;;5109272;28;20024;-66
2022/09/23 12:51:23;;;;;;;735.80;484.73;;;;;;;;;;5108980;28;20073;-66
2022/09/23 12:53:49;;;;;;;732.38;479.63;;;;;;;;;;5107637;28;20035;-66
2022/09/23 12:56:20;;;;;;;743.40;498.90;;;;;;;;;;5108458;28;20028;-66
2022/09/23 12:58:46;;;;;;;738.63;487.92;;;;;;;;;;5108970;28;20498;-65
2022/09/23 13:01:22;;;;;;;744.10;496.58;;;;;;;;;;5108326;28;20031;-65
2022/09/23 13:06:37;;;;;;;731.13;485.60;;;;;;;;;;5110850;28;20046;-67
2022/09/23 13:09:06;;;;;;;745.42;511.15;;;;;;;;;;5109114;28;20028;-67
2022/09/23 13:11:32;;;;;;;747.85;511.80;;;;;;;;;;5110673;28;20023;-66
2022/09/23 13:14:01;;;;;;;754.25;516.08;;;;;;;;;;5110746;28;20028;-67
2022/09/23 13:16:32;;;;;;;761.28;523.60;;;;;;;;;;5110321;28;20024;-67
2022/09/23 13:19:00;;;;;;;760.15;516.30;;;;;;;;;;5110817;28;20107;-67
2022/09/23 13:21:45;;;;;;;761.42;521.55;;;;;;;;;;5110807;28;20448;-67
2022/09/23 13:24:19;;;;;;;762.55;521.38;;;;;;;;;;5110274;28;20026;-66
2022/09/23 13:26:45;;;;;;;774.58;536.72;;;;;;;;;;5110612;28;20024;-67
2022/09/23 13:29:15;;;;;;;807.63;595.30;;;;;;;;;;5110469;28;20028;-67
2022/09/23 13:31:42;;;;;;;810.92;605.53;;;;;;;;;;5110011;28;20077;-67
2022/09/23 13:34:12;;;;;;;814.78;629.40;;;;;;;;;;5110387;28;20016;-67
2022/09/23 13:36:45;;;;;;;820.90;651.25;;;;;;;;;;5110355;28;20015;-67
2022/09/23 13:39:28;;;;;;;791.53;548.13;;;;;;;;;;5108185;28;20043;-67
2022/09/23 13:42:03;;;;;;;789.03;553.83;;;;;;;;;;5110259;28;20135;-67
2022/09/23 13:44:30;;;;;;;796.13;567.83;;;;;;;;;;5109670;28;20034;-67
2022/09/23 13:46:58;;;;;;;803.15;596.28;;;;;;;;;;5110115;28;20111;-67
2022/09/23 13:49:29;;;;;;;794.88;559.30;;;;;;;;;;5109979;28;20028;-67
2022/09/23 13:51:56;;;;;;;799.28;573.53;;;;;;;;;;5099275;28;20106;-67
2022/09/23 13:54:28;;;;;;;803.65;591.47;;;;;;;;;;5095081;28;20035;-67
2022/09/23 13:56:55;;;;;;;;;;;;;;;;;;5096990;28;20063;-67
2022/09/23 13:59:29;;;;;;;806.45;582.55;;;;;;;;;;5095817;28;19912;-67
2022/09/23 14:02:15;;;;;;;809.90;611.30;;;;;;;;;;5096272;28;20031;-67
2022/09/23 14:04:42;;;;;;;819.00;647.88;;;;;;;;;;5094864;28;20047;-67
2022/09/23 14:07:09;;;;;;;815.65;649.28;;;;;;;;;;5095764;28;20055;-67
2022/09/23 14:09:36;;;;;;;816.63;655.05;;;;;;;;;;5096300;28;20376;-67
2022/09/23 14:12:04;;;;;;;812.03;629.50;;;;;;;;;;5096039;28;20490;-67
2022/09/23 14:14:30;;;;;;;812.72;636.30;;;;;;;;;;5095968;28;20021;-67
2022/09/23 14:16:58;;;;;;;812.95;614.38;;;;;;;;;;5095940;28;20395;-67
2022/09/23 14:19:25;;;;;;;825.25;666.63;;;;;;;;;;5095431;28;20052;-67
2022/09/23 14:21:55;;;;;;;821.88;656.60;;;;;;;;;;5095755;28;20028;-67
2022/09/23 14:24:34;;;;;;;824.72;686.33;;;;;;;;;;5094554;28;20486;-67
2022/09/23 14:27:14;;;;;;;817.45;624.10;;;;;;;;;;5094077;28;20089;-67
2022/09/23 14:29:41;;;;;;;837.58;703.10;;;;;;;;;;5096059;28;20101;-67
2022/09/23 14:32:12;;;;;;;840.25;699.60;;;;;;;;;;5095670;28;20024;-67
2022/09/23 14:34:45;;;;;;;869.83;712.85;;;;;;;;;;5095389;28;20491;-67
2022/09/23 14:40:16;;;;;;;929.42;672.47;;;;;;;;;;5095216;28;20055;-67
2022/09/23 14:42:44;;;;;;;937.63;663.72;;;;;;;;;;5095673;28;20104;-67
2022/09/23 14:45:19;;;;;;;932.95;661.42;;;;;;;;;;5095411;28;20024;-67
2022/09/23 14:47:49;;;;;;;949.13;664.63;;;;;;;;;;5093696;28;20028;-67
2022/09/23 14:50:36;;;;;;;944.95;638.10;;;;;;;;;;5095277;28;20456;-67
2022/09/23 14:53:23;;;;;;;946.35;648.10;;;;;;;;;;5095417;28;20480;-67
2022/09/23 14:55:52;;;;;;;965.03;650.15;;;;;;;;;;5095132;28;20535;-67
2022/09/23 14:58:20;;;;;;;963.83;643.90;;;;;;;;;;5095179;28;20444;-67
2022/09/23 15:00:58;;;;;;;927.35;664.85;;;;;;;;;;5095222;28;20032;-66
2022/09/23 15:03:27;;;;;;;932.38;632.15;;;;;;;;;;5093822;28;20020;-67
2022/09/23 15:05:57;;;;;;;955.35;655.67;;;;;;;;;;5094987;28;20084;-66
2022/09/23 15:08:26;;;;;;;953.05;634.97;;;;;;;;;;5094609;28;20020;-67
2022/09/23 15:10:52;;;;;;;949.83;660.72;;;;;;;;;;5094919;28;20412;-66
2022/09/23 15:13:20;;;;;;;944.85;673.22;;;;;;;;;;5093632;28;20024;-66
2022/09/23 15:15:46;;;;;;;923.05;685.55;;;;;;;;;;5094423;28;20035;-67
2022/09/23 15:18:17;;;;;;;910.97;718.05;;;;;;;;;;5094735;28;20048;-67
2022/09/23 15:20:54;;;;;;;905.13;693.80;;;;;;;;;;5094982;28;20028;-67
2022/09/23 15:23:43;;;;;;;894.78;711.95;;;;;;;;;;5094355;28;20475;-67
2022/09/23 15:26:41;;;;;;;886.45;692.10;;;;;;;;;;5094754;28;20028;-66
2022/09/23 15:29:09;;;;;;;895.67;686.05;;;;;;;;;;5060755;28;20044;-66
2022/09/23 15:31:36;;;;;;;890.15;727.58;;;;;;;;;;5094083;28;20024;-66
2022/09/23 15:34:04;;;;;;;901.13;727.20;;;;;;;;;;5093216;28;20038;-66
2022/09/23 15:36:30;;;;;;;925.13;646.30;;;;;;;;;;5094235;28;20024;-66
2022/09/23 15:39:04;;;;;;;882.20;696.63;;;;;;;;;;5092875;28;20047;-66
2022/09/23 15:41:32;;;;;;;877.58;715.88;;;;;;;;;;5094337;28;20078;-66
2022/09/23 15:44:03;;;;;;;871.55;700.72;;;;;;;;;;5094083;28;20027;-66
2022/09/23 15:46:30;;;;;;;868.22;715.55;;;;;;;;;;5094443;28;20060;-66
2022/09/23 15:48:58;;;;;;;863.75;698.70;;;;;;;;;;5094188;28;20103;-66
2022/09/23 15:51:25;;;;;;;864.55;711.25;;;;;;;;;;5093662;28;20089;-66
2022/09/23 15:53:53;;;;;;;874.58;712.08;;;;;;;;;;5092877;28;20047;-66
2022/09/23 15:56:20;;;;;;;872.65;710.13;;;;;;;;;;5094061;28;20440;-66
2022/09/23 15:58:46;;;;;;;864.25;690.03;;;;;;;;;;5093722;28;20099;-66
2022/09/23 16:01:24;;;;;;;861.63;702.92;;;;;;;;;;5094361;28;20472;-66